KTLH

Tallahassee International Airport

Tallahassee, Florida, USA
METAR KTLH 191153Z 27003KT 10SM BCFG FEW030 FEW250 22/21 A2996 RMK AO2 SLP144 CB DSNT SE-S 70008 T02220211 10228 20217 53011
Observed Flight Rules
Sep-19 @ 11:53 UTC (an hour ago) Visual Flight Rules
Wind Visibility Clouds Conditions
270° at 3 knots 10 miles
  • Few at 3,000' AGL
  • Few at 25,000' AGL
  • Patches of
  • Fog
Temperatures Readings
Current 22°C / 72°F
Dewpoint 21°C / 70°F
Humidity 94%
Altimeter 29.96" Hg
Pressure 1014.4 hPa
Elevation 19
METAR KTLH 191153Z 27003KT 10SM BCFG FEW030 FEW250 22/21 A2996 RMK AO2 SLP144 CB DSNT SE-S 70008 T02220211 10228 20217 53011
Observed Flight Rules
Sep-19 @ 11:53 UTC
(an hour ago)
VFR
Wind Visibility
270° at 3 knots 10 miles
Clouds
  • Few at 3,000' AGL
  • Few at 25,000' AGL
Conditions
  • Patches of
  • Fog
Temperature Dewpoint
22°C / 72°F 21°C / 70°F
Humidity Altimeter Pressure
94% 29.96" Hg 1014.4 hPa